Time;durP1;ratioP1;P1;durP2;ratioP2;P2;SDS_P1;SDS_P2;PMS_P1;PMS_P2;Temp;Humidity;BMP_temperature;BMP_pressure;BME280_temperature;BME280_humidity;BME280_pressure;Samples;Min_cycle;Max_cycle;Signal;HPM_P1;HPM_P2
2022/07/06 00:02:15;;;;;;;5.20;2.78;;;;;;;23.47;57.63;100510.16;4993454;28;20098;-75
2022/07/06 00:04:40;;;;;;;13.48;3.22;;;;;;;23.36;57.55;100497.03;4993051;28;20088;-77
2022/07/06 00:07:06;;;;;;;10.98;2.70;;;;;;;23.32;57.92;100495.75;4994597;28;20088;-76
2022/07/06 00:09:32;;;;;;;5.50;3.05;;;;;;;23.35;57.67;100503.56;4994484;28;20042;-75
2022/07/06 00:11:58;;;;;;;8.60;3.28;;;;;;;23.33;57.63;100504.84;4994387;28;20038;-77
2022/07/06 00:14:23;;;;;;;6.38;3.88;;;;;;;23.24;57.58;100483.06;4994389;28;20190;-76
2022/07/06 00:16:49;;;;;;;12.27;4.30;;;;;;;23.30;57.12;100511.59;4994129;28;20448;-78
2022/07/06 00:19:14;;;;;;;8.63;4.25;;;;;;;23.28;57.17;100506.31;4994101;28;20080;-77
2022/07/06 00:21:40;;;;;;;10.25;4.35;;;;;;;23.14;57.04;100492.78;4994362;28;20041;-77
2022/07/06 00:24:05;;;;;;;9.73;3.97;;;;;;;23.15;57.25;100509.03;4994244;28;20088;-77
2022/07/06 00:26:31;;;;;;;13.52;4.60;;;;;;;23.11;57.20;100504.19;4995878;28;20022;-75
2022/07/06 00:28:56;;;;;;;17.92;3.95;;;;;;;23.09;57.61;100511.75;4994923;28;20092;-76
2022/07/06 00:31:22;;;;;;;9.98;3.88;;;;;;;23.05;57.96;100510.50;4993102;28;20053;-77
2022/07/06 00:33:47;;;;;;;15.95;3.95;;;;;;;22.95;57.52;100513.66;4993597;28;20030;-76
2022/07/06 00:36:13;;;;;;;14.82;4.00;;;;;;;22.74;57.76;100505.59;4993785;28;20037;-76
2022/07/06 00:38:38;;;;;;;6.45;3.28;;;;;;;22.70;57.99;100507.91;4993666;28;20026;-76
2022/07/06 00:41:04;;;;;;;14.55;5.25;;;;;;;22.54;58.26;100500.00;4992622;28;20026;-76
2022/07/06 00:43:46;;;;;;;11.45;4.25;;;;;;;22.48;58.22;100500.81;4993795;28;20026;-77
2022/07/06 00:46:12;;;;;;;11.48;4.80;;;;;;;22.44;58.21;100495.97;4993709;28;20042;-76
2022/07/06 00:48:37;;;;;;;9.13;3.75;;;;;;;22.38;58.57;100491.31;4993516;28;20028;-76
2022/07/06 00:51:03;;;;;;;9.25;4.03;;;;;;;22.36;58.62;100491.50;4993279;28;20097;-77
2022/07/06 00:53:28;;;;;;;9.73;3.92;;;;;;;22.41;58.75;100486.25;4993403;28;20108;-77
2022/07/06 00:55:54;;;;;;;11.55;3.72;;;;;;;22.35;59.31;100484.34;4993479;28;20041;-78
2022/07/06 00:58:19;;;;;;;19.23;4.03;;;;;;;22.32;59.80;100467.47;4993509;28;20400;-76
2022/07/06 01:00:45;;;;;;;5.82;3.53;;;;;;;22.39;60.05;100485.59;4993648;28;20033;-77
2022/07/06 01:03:10;;;;;;;8.20;3.90;;;;;;;22.41;60.39;100480.78;4993577;28;20022;-76
2022/07/06 01:05:36;;;;;;;8.27;3.47;;;;;;;22.46;60.58;100483.75;4993914;28;20522;-75
2022/07/06 01:08:01;;;;;;;10.90;3.45;;;;;;;22.46;60.71;100478.25;4993335;28;20086;-75
2022/07/06 01:10:27;;;;;;;13.30;3.50;;;;;;;22.49;60.71;100477.84;4993100;28;20105;-75
2022/07/06 01:12:54;;;;;;;14.93;3.97;;;;;;;22.49;60.96;100475.09;4993634;28;20104;-76
2022/07/06 01:15:23;;;;;;;10.07;3.60;;;;;;;22.60;60.58;100479.97;4993257;28;20479;-77
2022/07/06 01:17:49;;;;;;;8.35;4.07;;;;;;;22.62;59.74;100475.16;4993667;28;20088;-77
2022/07/06 01:20:23;;;;;;;11.45;3.47;;;;;;;22.65;58.05;100477.53;4993662;28;20034;-77
2022/07/06 01:22:51;;;;;;;5.40;3.28;;;;;;;22.66;57.67;100470.13;4993523;28;20416;-77
2022/07/06 01:25:18;;;;;;;7.20;3.55;;;;;;;22.66;57.30;100470.97;4993769;28;20399;-76
2022/07/06 01:27:43;;;;;;;14.00;3.80;;;;;;;22.68;57.40;100466.13;4993353;28;20026;-77
2022/07/06 01:30:19;;;;;;;8.60;3.47;;;;;;;22.75;57.05;100471.66;4993598;28;20022;-76
2022/07/06 01:32:44;;;;;;;10.85;3.63;;;;;;;22.74;56.76;100465.31;4992964;28;20096;-77
2022/07/06 01:35:12;;;;;;;14.05;3.70;;;;;;;22.76;56.62;100467.81;4993279;28;20031;-77
2022/07/06 01:37:39;;;;;;;9.32;3.78;;;;;;;22.76;56.82;100471.41;4993571;28;20026;-77
2022/07/06 01:40:06;;;;;;;9.32;3.03;;;;;;;22.77;56.82;100456.66;4993270;28;20092;-77
2022/07/06 01:42:33;;;;;;;7.82;2.83;;;;;;;22.86;55.71;100467.44;4993027;28;20030;-76
2022/07/06 01:44:58;;;;;;;7.10;3.30;;;;;;;22.81;55.47;100450.75;4992429;28;20031;-76
2022/07/06 01:47:24;;;;;;;4.40;2.88;;;;;;;22.85;55.12;100461.09;4992949;28;20030;-77
2022/07/06 01:49:50;;;;;;;5.32;3.15;;;;;;;22.80;54.90;100460.88;4992902;28;20046;-77
2022/07/06 01:52:15;;;;;;;9.95;3.58;;;;;;;22.77;55.30;100469.53;4993482;28;20026;-76
2022/07/06 01:54:41;;;;;;;5.22;3.10;;;;;;;22.78;56.05;100469.31;4993709;28;20029;-76
2022/07/06 01:57:07;;;;;;;11.82;4.07;;;;;;;22.80;56.21;100469.13;4993128;28;20022;-77
2022/07/06 01:59:33;;;;;;;20.85;4.32;;;;;;;22.75;56.83;100466.16;4993329;28;20056;-77
2022/07/06 02:01:58;;;;;;;21.48;4.38;;;;;;;22.69;57.09;100467.81;4993726;28;20493;-76
2022/07/06 02:04:24;;;;;;;15.23;4.63;;;;;;;22.72;57.15;100474.78;4996020;28;20107;-77
2022/07/06 02:06:49;;;;;;;7.15;3.95;;;;;;;22.66;57.48;100472.84;4994370;28;20026;-77
2022/07/06 02:09:16;;;;;;;12.27;4.68;;;;;;;22.67;57.37;100469.91;4993351;28;20152;-77
2022/07/06 02:11:41;;;;;;;10.75;4.80;;;;;;;22.64;57.66;100474.94;4993038;28;20030;-75
2022/07/06 02:14:07;;;;;;;10.45;4.93;;;;;;;22.61;57.59;100464.38;4992600;28;20030;-76
2022/07/06 02:16:32;;;;;;;8.90;4.75;;;;;;;22.60;57.42;100466.28;4992448;28;20022;-76
2022/07/06 02:18:58;;;;;;;15.40;4.72;;;;;;;22.57;57.61;100460.34;4992154;28;20050;-76
2022/07/06 02:21:23;;;;;;;10.18;5.57;;;;;;;22.60;57.37;100468.16;4992829;28;20026;-76
2022/07/06 02:23:49;;;;;;;11.98;5.75;;;;;;;22.56;57.27;100470.50;4992747;28;20037;-76
2022/07/06 02:26:14;;;;;;;23.83;7.00;;;;;;;22.53;57.11;100468.16;4992851;28;20039;-76
2022/07/06 02:28:40;;;;;;;11.20;4.35;;;;;;;22.54;56.86;100464.34;4992722;28;20034;-76
2022/07/06 02:31:05;;;;;;;13.60;5.28;;;;;;;22.54;56.69;100475.31;4991969;28;20093;-76
2022/07/06 02:33:31;;;;;;;22.40;4.53;;;;;;;22.46;55.86;100450.00;4992595;28;20102;-75
2022/07/06 02:35:56;;;;;;;17.67;4.38;;;;;;;22.54;55.72;100467.09;4992360;28;20374;-76
2022/07/06 02:38:22;;;;;;;10.95;4.70;;;;;;;22.47;55.57;100449.81;4992341;28;20019;-76
2022/07/06 02:40:48;;;;;;;12.00;4.72;;;;;;;22.52;55.23;100460.13;4991958;28;20106;-76
2022/07/06 02:43:14;;;;;;;33.65;6.10;;;;;;;22.53;54.92;100457.22;4992361;28;20109;-76
2022/07/06 02:45:39;;;;;;;13.15;4.97;;;;;;;22.50;54.25;100462.25;4990535;28;20121;-75
2022/07/06 02:48:05;;;;;;;13.13;4.82;;;;;;;22.44;53.78;100441.16;4991805;28;20119;-76
2022/07/06 02:50:30;;;;;;;9.70;4.50;;;;;;;22.48;53.16;100456.09;4991493;28;20508;-75
2022/07/06 02:52:56;;;;;;;12.50;4.25;;;;;;;22.44;52.74;100447.47;4992326;28;20023;-76
2022/07/06 02:55:22;;;;;;;14.52;4.97;;;;;;;22.42;52.09;100444.09;4993219;28;20026;-76
2022/07/06 02:57:47;;;;;;;15.50;5.43;;;;;;;22.51;52.01;100448.31;4995689;28;20062;-76
2022/07/06 03:00:13;;;;;;;13.52;4.78;;;;;;;22.38;51.33;100428.28;4995728;28;20026;-76
2022/07/06 03:02:39;;;;;;;14.98;5.25;;;;;;;22.48;51.81;100437.78;4995955;28;20025;-76
2022/07/06 03:05:05;;;;;;;24.48;5.75;;;;;;;22.51;52.87;100444.72;4995426;28;20034;-76
2022/07/06 03:07:30;;;;;;;20.10;7.47;;;;;;;22.56;54.55;100445.84;4995638;28;20544;-77
2022/07/06 03:09:56;;;;;;;25.83;8.50;;;;;;;22.58;54.92;100435.50;4995299;28;20049;-78
2022/07/06 03:12:21;;;;;;;22.95;8.88;;;;;;;22.57;55.13;100436.53;4995140;28;20026;-78
2022/07/06 03:14:47;;;;;;;20.08;7.60;;;;;;;22.59;55.76;100434.44;4995224;28;20030;-78
2022/07/06 03:17:12;;;;;;;17.85;9.43;;;;;;;22.54;56.02;100439.69;4994833;28;20026;-77
2022/07/06 03:19:38;;;;;;;22.15;7.88;;;;;;;22.61;56.29;100442.44;4996389;28;20022;-78
2022/07/06 03:22:04;;;;;;;23.98;8.00;;;;;;;22.59;56.38;100434.44;4994701;28;20026;-76
2022/07/06 03:24:29;;;;;;;24.25;8.75;;;;;;;22.63;55.99;100435.69;4994602;28;20105;-76
2022/07/06 03:26:55;;;;;;;27.27;7.78;;;;;;;22.59;56.13;100439.94;4995082;28;20032;-77
2022/07/06 03:29:20;;;;;;;19.35;8.27;;;;;;;22.59;56.47;100441.81;4994903;28;20087;-77
2022/07/06 03:31:46;;;;;;;35.28;9.88;;;;;;;22.62;56.58;100445.00;4994728;28;20078;-76
2022/07/06 03:34:12;;;;;;;39.13;9.63;;;;;;;22.66;56.63;100439.94;4994879;28;20033;-76
2022/07/06 03:36:37;;;;;;;27.05;9.63;;;;;;;22.67;56.77;100445.25;4994734;28;20030;-77
2022/07/06 03:39:03;;;;;;;32.47;10.30;;;;;;;22.65;57.13;100452.00;4994424;28;20407;-76
2022/07/06 03:41:29;;;;;;;24.17;14.18;;;;;;;22.44;57.65;100431.03;4997623;28;20026;-77
2022/07/06 03:43:54;;;;;;;56.15;35.33;;;;;;;22.52;58.11;100436.31;4995189;28;20073;-77
2022/07/06 03:46:19;;;;;;;82.07;43.63;;;;;;;22.43;58.45;100428.50;4994179;28;20036;-76
2022/07/06 03:48:45;;;;;;;63.92;31.50;;;;;;;22.44;58.87;100442.00;4994174;28;20053;-77
2022/07/06 03:51:11;;;;;;;63.55;32.10;;;;;;;22.47;58.66;100438.84;4994077;28;20054;-75
2022/07/06 03:53:37;;;;;;;43.20;25.42;;;;;;;22.36;58.83;100422.97;4994307;28;20053;-76
2022/07/06 03:58:46;;;;;;;51.15;20.20;;;;;;;22.57;58.72;100444.75;4993760;28;20096;-76
2022/07/06 04:01:12;;;;;;;43.05;18.25;;;;;;;22.62;58.15;100442.25;4993833;28;20030;-75
2022/07/06 04:03:38;;;;;;;42.97;16.60;;;;;;;22.54;58.32;100425.97;4993701;28;20493;-75
2022/07/06 04:06:04;;;;;;;47.10;17.50;;;;;;;22.75;58.21;100452.44;4993861;28;20041;-76
2022/07/06 04:08:29;;;;;;;26.45;14.63;;;;;;;22.84;57.81;100458.56;4993042;28;20030;-76
2022/07/06 04:10:55;;;;;;;38.65;14.40;;;;;;;22.70;57.71;100442.09;4993663;28;20037;-76
2022/07/06 04:13:20;;;;;;;31.60;13.10;;;;;;;22.83;57.54;100451.38;4993544;28;20022;-76
2022/07/06 04:15:46;;;;;;;29.02;12.52;;;;;;;22.92;56.97;100445.50;4993600;28;20029;-77
2022/07/06 04:18:11;;;;;;;27.85;12.38;;;;;;;22.99;56.70;100445.50;4993257;28;20086;-76
2022/07/06 04:20:37;;;;;;;55.72;13.63;;;;;;;23.06;56.71;100457.31;4993233;28;20033;-76
2022/07/06 04:23:03;;;;;;;27.35;13.43;;;;;;;23.02;56.51;100429.47;4993136;28;20030;-78
2022/07/06 04:25:28;;;;;;;27.17;12.50;;;;;;;23.07;56.46;100437.06;4993341;28;20027;-77
2022/07/06 04:27:53;;;;;;;30.95;14.70;;;;;;;23.27;56.14;100444.22;4993198;28;20038;-76
2022/07/06 04:30:19;;;;;;;35.92;14.57;;;;;;;23.32;55.89;100446.34;4993415;28;20034;-77
2022/07/06 04:32:44;;;;;;;51.90;13.57;;;;;;;23.35;56.09;100434.97;4993409;28;20030;-78
2022/07/06 04:35:10;;;;;;;33.58;12.68;;;;;;;23.37;56.23;100438.31;4992247;28;20080;-77
2022/07/06 04:37:36;;;;;;;39.53;12.20;;;;;;;23.45;56.11;100437.31;4993461;28;20346;-77
2022/07/06 04:40:01;;;;;;;26.17;10.73;;;;;;;23.40;56.12;100437.09;4993527;28;20145;-78
2022/07/06 04:42:27;;;;;;;31.20;11.30;;;;;;;23.48;55.49;100439.63;4992201;28;20124;-78
2022/07/06 04:44:52;;;;;;;28.20;11.57;;;;;;;23.54;54.99;100434.13;4993573;28;20038;-78
2022/07/06 04:47:18;;;;;;;34.08;14.05;;;;;;;23.63;54.73;100446.56;4993190;28;20554;-76
2022/07/06 04:49:43;;;;;;;23.27;14.25;;;;;;;23.70;54.34;100450.13;4993280;28;20057;-77
2022/07/06 04:52:09;;;;;;;28.23;13.68;;;;;;;23.74;54.53;100448.66;4993719;28;20030;-77
2022/07/06 04:54:35;;;;;;;27.30;12.35;;;;;;;23.74;54.41;100440.41;4993251;28;20034;-79
2022/07/06 04:57:00;;;;;;;38.30;15.52;;;;;;;23.80;54.21;100439.56;4994284;28;20560;-77
2022/07/06 04:59:26;;;;;;;45.72;23.50;;;;;;;23.84;54.26;100435.31;4976168;28;20038;-76
2022/07/06 05:01:51;;;;;;;54.78;30.17;;;;;;;23.93;54.49;100438.69;4998078;28;20030;-77
2022/07/06 05:04:20;;;;;;;72.45;30.95;;;;;;;23.90;53.97;100416.28;4997713;28;20033;-79
2022/07/06 05:06:46;;;;;;;52.97;22.60;;;;;;;24.08;53.61;100438.41;4993191;28;20344;-79
2022/07/06 05:09:12;;;;;;;60.35;22.52;;;;;;;24.05;53.61;100425.97;4992740;28;20456;-78
2022/07/06 05:11:38;;;;;;;40.08;15.57;;;;;;;24.11;53.62;100424.28;4992914;28;20037;-79
2022/07/06 05:14:04;;;;;;;31.67;13.57;;;;;;;24.21;53.41;100438.41;4993089;28;20034;-78
2022/07/06 05:16:30;;;;;;;40.20;14.23;;;;;;;24.23;53.07;100445.38;4993573;28;20183;-80
2022/07/06 05:18:56;;;;;;;33.60;14.00;;;;;;;24.27;53.34;100440.28;5006401;28;20030;-77
2022/07/06 05:21:21;;;;;;;42.70;13.00;;;;;;;24.30;52.98;100439.84;4997013;28;20026;-77
2022/07/06 05:23:47;;;;;;;32.33;11.45;;;;;;;24.36;52.66;100448.06;4992501;28;20384;-76
2022/07/06 05:26:12;;;;;;;24.50;11.00;;;;;;;24.49;52.51;100438.06;4992632;28;20539;-76
2022/07/06 05:28:38;;;;;;;34.72;11.45;;;;;;;24.48;52.59;100448.22;4992334;28;20026;-76
2022/07/06 05:31:03;;;;;;;34.38;11.65;;;;;;;24.53;52.44;100451.13;4992776;28;20455;-75
2022/07/06 05:33:29;;;;;;;40.65;14.00;;;;;;;24.58;52.42;100439.47;4992443;28;20034;-76
2022/07/06 05:35:54;;;;;;;36.72;12.57;;;;;;;24.71;52.67;100442.97;4992310;28;20038;-77
2022/07/06 05:38:20;;;;;;;20.88;10.38;;;;;;;24.81;52.35;100453.53;4992160;28;20046;-76
2022/07/06 05:40:45;;;;;;;39.20;12.63;;;;;;;24.88;51.97;100455.19;4992407;28;20034;-76
2022/07/06 05:43:11;;;;;;;35.78;11.50;;;;;;;24.90;52.00;100436.53;4992057;28;20033;-76
2022/07/06 05:45:36;;;;;;;29.50;11.45;;;;;;;24.97;51.97;100446.66;4992701;28;20445;-76
2022/07/06 05:50:46;;;;;;;21.88;9.93;;;;;;;25.08;50.92;100437.69;4992170;28;20108;-79
2022/07/06 05:53:11;;;;;;;35.72;10.95;;;;;;;25.22;50.29;100450.28;4992817;28;20026;-76
2022/07/06 05:55:37;;;;;;;34.92;9.07;;;;;;;25.17;49.64;100431.66;4992861;28;20391;-87
2022/07/06 05:58:03;;;;;;;37.33;9.23;;;;;;;25.32;49.71;100434.06;4993280;28;20018;-79
2022/07/06 06:00:28;;;;;;;27.52;11.02;;;;;;;25.41;49.11;100441.00;4992808;28;20101;-81
2022/07/06 06:02:55;;;;;;;28.60;10.50;;;;;;;25.49;48.73;100446.25;4993454;28;20595;-76
2022/07/06 06:05:20;;;;;;;30.23;13.40;;;;;;;25.54;49.07;100443.66;4992387;28;20058;-77
2022/07/06 06:07:48;;;;;;;23.15;13.05;;;;;;;25.48;48.78;100427.16;4992580;28;20069;-78
2022/07/06 06:10:14;;;;;;;43.70;14.98;;;;;;;25.60;48.95;100434.50;4992470;28;20034;-79
2022/07/06 06:12:40;;;;;;;38.25;16.08;;;;;;;25.74;48.94;100441.56;4992428;28;20416;-81
2022/07/06 06:15:06;;;;;;;28.08;14.85;;;;;;;25.79;48.94;100436.19;4992595;28;20031;-80
2022/07/06 06:17:33;;;;;;;46.30;16.42;;;;;;;25.85;48.93;100429.78;4992500;28;20076;-79
2022/07/06 06:19:59;;;;;;;42.65;16.17;;;;;;;25.85;49.20;100429.78;4992383;28;20026;-79
2022/07/06 06:22:25;;;;;;;42.20;18.55;;;;;;;25.91;49.53;100423.34;4990436;28;20118;-78
2022/07/06 06:24:50;;;;;;;40.50;18.50;;;;;;;26.06;49.75;100424.84;4992485;28;20037;-81
2022/07/06 06:27:16;;;;;;;54.20;18.33;;;;;;;26.07;49.67;100415.53;4993669;28;20023;-81
2022/07/06 06:29:43;;;;;;;51.90;18.17;;;;;;;26.07;49.47;100405.34;5001777;28;20026;-84
2022/07/06 06:32:10;;;;;;;54.45;18.00;;;;;;;26.25;49.62;100423.81;4998869;28;20844;-77
2022/07/06 06:34:36;;;;;;;45.28;15.88;;;;;;;26.37;49.37;100427.47;4996204;28;20469;-77
2022/07/06 06:37:01;;;;;;;36.85;15.38;;;;;;;26.45;49.27;100424.41;4996180;28;20037;-78
2022/07/06 06:39:27;;;;;;;35.60;15.25;;;;;;;26.48;48.84;100430.28;4996106;28;20018;-77
2022/07/06 06:41:52;;;;;;;50.83;17.52;;;;;;;26.53;48.82;100429.59;4994933;28;20396;-80
2022/07/06 06:44:18;;;;;;;56.40;23.58;;;;;;;26.49;48.54;100406.28;4994311;28;20104;-78
2022/07/06 06:46:43;;;;;;;42.38;16.40;;;;;;;26.47;48.52;100394.66;4995922;28;20034;-79
2022/07/06 06:49:10;;;;;;;38.15;15.48;;;;;;;26.67;48.29;100422.78;4994319;28;20034;-79
2022/07/06 06:51:37;;;;;;;39.45;15.15;;;;;;;26.73;48.28;100408.06;4995710;28;20033;-78
2022/07/06 06:54:03;;;;;;;29.85;13.07;;;;;;;26.85;47.46;100431.03;4995961;28;20061;-78
2022/07/06 06:56:28;;;;;;;30.23;12.93;;;;;;;26.88;46.75;100416.78;5001000;28;20022;-77
2022/07/06 06:58:54;;;;;;;29.85;13.05;;;;;;;27.00;47.65;100419.59;5014073;28;20385;-77
2022/07/06 07:01:19;;;;;;;42.92;13.52;;;;;;;27.08;47.01;100421.13;4996574;28;20547;-78
2022/07/06 07:03:45;;;;;;;28.65;13.15;;;;;;;27.12;47.03;100425.13;4995558;28;20030;-77
2022/07/06 07:06:10;;;;;;;35.63;14.55;;;;;;;27.23;47.12;100429.81;4995327;28;20035;-78
2022/07/06 07:08:36;;;;;;;42.88;14.77;;;;;;;27.27;47.80;100412.53;4995241;28;20463;-79
2022/07/06 07:11:01;;;;;;;41.72;12.85;;;;;;;27.36;47.26;100413.00;4995194;28;20089;-77
2022/07/06 07:13:27;;;;;;;49.50;14.90;;;;;;;27.47;46.75;100417.72;4994875;28;20049;-77
2022/07/06 07:15:52;;;;;;;23.38;11.15;;;;;;;27.63;45.84;100422.53;4994808;28;20026;-77
2022/07/06 07:18:18;;;;;;;33.03;13.63;;;;;;;27.67;45.89;100415.44;4994547;28;20096;-78
2022/07/06 07:20:43;;;;;;;30.45;11.75;;;;;;;27.76;45.45;100422.28;4994426;28;20781;-77
2022/07/06 07:23:09;;;;;;;31.55;12.38;;;;;;;27.86;45.39;100432.72;4994676;28;20738;-78
2022/07/06 07:25:34;;;;;;;27.92;11.48;;;;;;;27.88;44.64;100425.88;4994415;28;20058;-78
2022/07/06 07:28:00;;;;;;;31.42;12.20;;;;;;;27.89;44.11;100423.94;4993401;28;20475;-78
2022/07/06 07:30:26;;;;;;;23.83;11.85;;;;;;;28.00;44.53;100429.47;4994621;28;20165;-78
2022/07/06 07:32:51;;;;;;;16.88;7.65;;;;;;;28.00;42.17;100439.69;4994574;28;20476;-77
2022/07/06 07:35:16;;;;;;;30.80;9.65;;;;;;;28.04;42.42;100419.59;4994424;28;20030;-77
2022/07/06 07:37:42;;;;;;;22.38;9.27;;;;;;;28.16;42.19;100435.34;4994502;28;20401;-78
2022/07/06 07:40:08;;;;;;;19.95;9.68;;;;;;;28.28;42.43;100428.72;4994208;28;20477;-78
2022/07/06 07:42:33;;;;;;;23.02;9.70;;;;;;;28.34;42.98;100433.25;4993452;28;20396;-77
2022/07/06 07:44:59;;;;;;;15.57;7.38;;;;;;;28.39;40.97;100432.50;4994731;28;20447;-77
2022/07/06 07:47:24;;;;;;;20.58;7.30;;;;;;;28.42;40.41;100420.94;4994453;28;20026;-78
2022/07/06 07:49:50;;;;;;;21.45;7.25;;;;;;;28.53;40.86;100422.84;4994434;28;20483;-77
2022/07/06 07:52:15;;;;;;;15.73;7.57;;;;;;;28.54;39.67;100424.50;4994817;28;20504;-76
2022/07/06 07:54:41;;;;;;;14.48;6.63;;;;;;;28.55;39.61;100418.75;4996929;28;20469;-77
2022/07/06 07:57:07;;;;;;;18.40;7.32;;;;;;;28.65;39.95;100409.81;5000138;28;20085;-77
2022/07/06 07:59:32;;;;;;;21.90;5.10;;;;;;;28.72;39.10;100410.50;4995462;28;20036;-77
2022/07/06 08:01:58;;;;;;;11.25;5.05;;;;;;;28.69;38.64;100402.69;4994551;28;20030;-76
2022/07/06 08:04:23;;;;;;;17.90;5.15;;;;;;;28.84;38.08;100430.66;4994033;28;20026;-78
2022/07/06 08:06:49;;;;;;;14.13;5.63;;;;;;;28.88;38.03;100426.28;4993526;28;20112;-77
2022/07/06 08:09:16;;;;;;;21.35;5.82;;;;;;;28.93;37.91;100426.38;4994570;28;20036;-77
2022/07/06 08:11:42;;;;;;;13.02;5.38;;;;;;;28.81;38.40;100413.69;4994488;28;20084;-77
2022/07/06 08:14:08;;;;;;;19.92;6.53;;;;;;;28.99;38.77;100433.69;4993736;28;20038;-77
2022/07/06 08:16:33;;;;;;;49.25;7.32;;;;;;;29.09;38.48;100427.50;4993861;28;20412;-77
2022/07/06 08:18:58;;;;;;;18.85;5.40;;;;;;;28.96;38.33;100417.56;4993961;28;20037;-76
2022/07/06 08:21:24;;;;;;;12.43;4.70;;;;;;;28.99;38.12;100439.22;4994173;28;20034;-77
2022/07/06 08:23:50;;;;;;;11.05;5.07;;;;;;;29.00;37.64;100435.38;4994694;28;20034;-77
2022/07/06 08:26:16;;;;;;;10.65;4.57;;;;;;;29.14;37.79;100435.91;4993856;28;20037;-79
2022/07/06 08:28:41;;;;;;;10.13;4.88;;;;;;;29.29;37.96;100438.97;4993753;28;20544;-77
2022/07/06 08:31:06;;;;;;;17.33;5.38;;;;;;;29.37;38.07;100432.16;4993469;28;20469;-77
2022/07/06 08:33:32;;;;;;;12.23;4.75;;;;;;;29.34;38.18;100425.19;4999340;28;20033;-77
2022/07/06 08:35:58;;;;;;;11.60;4.18;;;;;;;29.29;38.63;100432.56;5007010;28;20027;-78
2022/07/06 08:38:24;;;;;;;19.90;5.35;;;;;;;29.31;38.87;100435.94;4995101;28;20473;-78
2022/07/06 08:40:51;;;;;;;12.75;4.28;;;;;;;29.46;38.88;100434.25;4993205;28;20106;-78
2022/07/06 08:43:17;;;;;;;13.32;4.38;;;;;;;29.55;38.83;100423.56;4992992;28;20114;-78
2022/07/06 08:45:45;;;;;;;10.18;5.22;;;;;;;29.59;37.96;100433.06;4992897;28;20074;-78
2022/07/06 08:48:12;;;;;;;24.25;6.32;;;;;;;29.69;37.80;100427.69;4993089;28;20022;-78
2022/07/06 08:50:38;;;;;;;10.52;4.90;;;;;;;29.69;37.93;100438.78;4992974;28;20046;-78
2022/07/06 08:53:04;;;;;;;18.33;6.30;;;;;;;29.73;38.98;100442.69;4992445;28;20022;-78
2022/07/06 08:55:30;;;;;;;22.98;5.57;;;;;;;29.78;38.46;100441.94;4992844;28;20022;-77
2022/07/06 08:57:57;;;;;;;16.33;4.88;;;;;;;29.65;38.26;100427.34;4992784;28;20070;-77
2022/07/06 09:00:26;;;;;;;7.85;4.72;;;;;;;29.55;39.01;100438.28;4992673;28;20029;-77
2022/07/06 09:02:54;;;;;;;16.02;4.18;;;;;;;29.55;38.52;100449.34;4992831;28;20030;-76
2022/07/06 09:05:22;;;;;;;18.98;4.30;;;;;;;29.56;39.36;100436.34;4992936;28;20088;-75
2022/07/06 09:07:51;;;;;;;26.67;6.38;;;;;;;29.67;39.81;100432.63;4992646;28;20022;-76
2022/07/06 09:10:19;;;;;;;10.20;4.38;;;;;;;29.69;39.24;100428.50;4992237;28;20097;-76
2022/07/06 09:12:45;;;;;;;6.28;3.90;;;;;;;29.76;37.46;100422.75;4992508;28;20037;-77
2022/07/06 09:15:10;;;;;;;10.85;3.75;;;;;;;29.88;37.57;100429.06;4992707;28;20026;-80
2022/07/06 09:17:41;;;;;;;14.77;3.72;;;;;;;29.95;36.99;100420.56;4992424;28;20037;-76
2022/07/06 09:20:09;;;;;;;8.13;3.50;;;;;;;29.97;37.01;100424.75;4992318;28;20464;-75
2022/07/06 09:22:34;;;;;;;19.67;10.10;;;;;;;29.96;39.05;100414.78;4992143;28;20085;-76
2022/07/06 09:25:12;;;;;;;9.82;4.13;;;;;;;29.87;39.56;100416.31;4992517;28;20041;-76
2022/07/06 09:27:42;;;;;;;13.38;3.78;;;;;;;29.90;40.13;100396.41;4992281;28;20022;-77
2022/07/06 09:30:10;;;;;;;7.85;4.10;;;;;;;29.85;39.16;100420.41;4992389;28;20034;-77
2022/07/06 09:32:40;;;;;;;16.98;5.57;;;;;;;29.99;40.10;100417.03;4991999;28;20014;-77
2022/07/06 09:35:06;;;;;;;22.67;5.45;;;;;;;30.06;39.97;100395.47;4992165;28;20022;-77
2022/07/06 09:37:32;;;;;;;19.70;5.38;;;;;;;30.26;39.58;100414.31;4992193;28;20034;-76
2022/07/06 09:39:57;;;;;;;8.98;3.70;;;;;;;30.27;39.54;100412.41;4992510;28;20403;-76
2022/07/06 09:42:26;;;;;;;12.40;4.50;;;;;;;30.28;40.07;100408.50;4992279;28;20044;-76
2022/07/06 09:44:53;;;;;;;14.43;4.57;;;;;;;30.37;40.31;100413.34;4992551;28;20034;-77
2022/07/06 09:47:18;;;;;;;26.13;4.78;;;;;;;30.23;39.75;100403.75;4992467;28;20022;-77
2022/07/06 09:49:47;;;;;;;15.45;4.93;;;;;;;30.31;38.74;100399.66;4991974;28;20519;-77
2022/07/06 09:52:13;;;;;;;11.15;4.97;;;;;;;30.49;38.34;100404.88;4992174;28;20408;-77
2022/07/06 09:54:40;;;;;;;7.25;3.70;;;;;;;30.60;37.59;100401.16;4992407;28;20115;-75
2022/07/06 09:57:06;;;;;;;36.78;5.55;;;;;;;30.67;37.28;100408.16;4991810;28;20041;-77
2022/07/06 09:59:34;;;;;;;12.80;4.40;;;;;;;30.74;37.09;100402.38;4992841;28;20702;-77
2022/07/06 10:02:03;;;;;;;20.02;4.20;;;;;;;30.81;36.71;100408.59;4992343;28;20026;-76
2022/07/06 10:04:29;;;;;;;15.75;3.67;;;;;;;30.90;36.13;100407.00;4992145;28;20133;-77
2022/07/06 10:06:56;;;;;;;18.02;4.10;;;;;;;30.98;36.87;100398.22;4998186;28;20037;-76
2022/07/06 10:09:24;;;;;;;10.88;3.97;;;;;;;30.98;36.47;100403.75;4999345;28;20376;-76
2022/07/06 10:12:00;;;;;;;16.88;4.50;;;;;;;30.89;37.07;100404.47;5004989;28;20487;-78
2022/07/06 10:14:28;;;;;;;15.20;4.32;;;;;;;30.93;37.55;100392.59;5003945;28;20403;-76
2022/07/06 10:16:57;;;;;;;7.22;4.05;;;;;;;30.93;37.79;100395.38;4998770;28;20030;-76
2022/07/06 10:19:23;;;;;;;21.30;4.82;;;;;;;30.95;37.92;100397.91;4998322;28;20096;-77
2022/07/06 10:21:51;;;;;;;17.27;4.05;;;;;;;31.00;36.98;100396.03;4998399;28;20030;-77
2022/07/06 10:24:18;;;;;;;20.52;4.18;;;;;;;31.06;36.95;100388.56;4998373;28;20076;-77
2022/07/06 10:26:45;;;;;;;17.20;4.63;;;;;;;31.13;36.59;100391.97;4996878;28;20069;-76
2022/07/06 10:29:11;;;;;;;91.45;7.25;;;;;;;31.20;35.86;100384.22;4998145;28;20029;-75
2022/07/06 10:31:48;;;;;;;6.35;4.28;;;;;;;31.34;36.06;100387.41;4997932;28;20018;-75
2022/07/06 10:34:17;;;;;;;16.88;4.43;;;;;;;31.42;34.82;100376.59;4998120;28;20117;-77
2022/07/06 10:36:47;;;;;;;11.35;4.15;;;;;;;31.52;34.09;100389.78;4996573;28;20034;-76
2022/07/06 10:41:57;;;;;;;12.40;3.63;;;;;;;31.44;33.21;100390.22;4998150;28;20026;-76
2022/07/06 10:44:25;;;;;;;17.42;3.50;;;;;;;31.39;32.59;100387.41;4997910;28;20064;-77
2022/07/06 10:46:57;;;;;;;10.05;4.00;;;;;;;31.32;33.83;100389.59;4998459;28;20063;-76
2022/07/06 10:49:25;;;;;;;7.82;3.38;;;;;;;31.33;34.18;100389.34;4998653;28;20028;-76
2022/07/06 10:51:51;;;;;;;13.27;4.38;;;;;;;31.36;35.10;100374.91;5003344;28;20022;-76
2022/07/06 10:54:19;;;;;;;10.63;3.50;;;;;;;31.34;35.20;100371.56;4999827;28;20101;-76
2022/07/06 10:56:47;;;;;;;10.30;3.42;;;;;;;31.39;35.50;100385.47;4998275;28;20034;-76
2022/07/06 10:59:14;;;;;;;16.08;3.65;;;;;;;31.40;35.86;100378.00;4997999;28;20022;-77
2022/07/06 11:01:39;;;;;;;18.15;3.83;;;;;;;31.56;35.46;100377.84;4997989;28;20396;-76
2022/07/06 11:04:09;;;;;;;18.00;3.95;;;;;;;31.66;36.02;100361.22;5000307;28;20539;-81
2022/07/06 11:06:39;;;;;;;22.52;4.13;;;;;;;31.57;35.32;100360.06;5000393;28;20033;-86
2022/07/06 11:09:06;;;;;;;12.25;3.20;;;;;;;31.62;35.54;100375.94;5001652;28;20116;-87
2022/07/06 11:11:31;;;;;;;9.35;3.65;;;;;;;31.41;35.10;100369.38;4999500;28;20026;-80
2022/07/06 11:14:03;;;;;;;19.50;3.78;;;;;;;31.45;35.71;100369.66;4996784;28;20033;-75
2022/07/06 11:16:33;;;;;;;14.32;4.32;;;;;;;31.53;36.49;100369.22;4997986;28;20037;-88
2022/07/06 11:19:10;;;;;;;5.88;3.97;;;;;;;31.55;36.86;100358.66;4996483;28;20031;-87
2022/07/06 11:21:40;;;;;;;11.80;4.05;;;;;;;31.61;36.82;100360.34;4996893;28;20058;-89